Time;durP1;ratioP1;P1;durP2;ratioP2;P2;SDS_P1;SDS_P2;PMS_P1;PMS_P2;Temp;Humidity;BMP_temperature;BMP_pressure;BME280_temperature;BME280_humidity;BME280_pressure;Samples;Min_cycle;Max_cycle;Signal;HPM_P1;HPM_P2
2023/10/27 00:01:32;;;;;;;13.67;12.80;;;22.00;93.30;;;;;;5043106;28;20483;-69
2023/10/27 00:03:59;;;;;;;13.40;12.60;;;22.00;93.30;;;;;;5040504;28;20495;-69
2023/10/27 00:06:27;;;;;;;13.03;12.33;;;22.00;93.40;;;;;;5040406;28;20473;-69
2023/10/27 00:08:54;;;;;;;13.60;12.70;;;22.00;93.50;;;;;;5032352;28;20471;-69
2023/10/27 00:11:21;;;;;;;13.37;12.47;;;22.00;93.50;;;;;;5040407;28;20479;-69
2023/10/27 00:13:49;;;;;;;13.17;12.47;;;22.00;93.30;;;;;;5042928;28;20563;-69
2023/10/27 00:16:16;;;;;;;12.90;12.30;;;22.00;93.30;;;;;;5043900;28;20924;-69
2023/10/27 00:18:43;;;;;;;14.30;13.50;;;22.00;93.20;;;;;;5041419;28;20901;-69
2023/10/27 00:21:10;;;;;;;12.10;11.60;;;22.00;93.20;;;;;;5040235;28;20881;-69
2023/10/27 00:23:37;;;;;;;12.87;11.97;;;21.90;93.20;;;;;;5041101;28;20438;-69
2023/10/27 00:26:04;;;;;;;12.57;11.50;;;21.90;93.20;;;;;;5043533;28;20468;-70
2023/10/27 00:28:31;;;;;;;12.60;12.10;;;21.90;93.20;;;;;;5042905;28;20874;-69
2023/10/27 00:31:01;;;;;;;12.73;12.13;;;21.90;93.10;;;;;;5044250;28;20480;-69
2023/10/27 00:33:27;;;;;;;12.63;12.13;;;21.90;93.20;;;;;;5043377;28;21195;-69
2023/10/27 00:35:55;;;;;;;13.40;12.80;;;21.90;93.20;;;;;;5039941;28;20473;-69
2023/10/27 00:38:22;;;;;;;12.13;11.70;;;21.90;93.30;;;;;;5039839;28;20480;-69
2023/10/27 00:40:48;;;;;;;13.27;12.43;;;22.00;93.30;;;;;;5042608;28;20472;-69
2023/10/27 00:43:16;;;;;;;12.63;12.13;;;21.90;93.30;;;;;;5043235;28;20464;-69
2023/10/27 00:45:46;;;;;;;12.77;12.20;;;21.90;93.30;;;;;;5041270;28;20436;-69
2023/10/27 00:48:15;;;;;;;12.50;12.00;;;22.00;93.50;;;;;;5040205;28;20928;-69
2023/10/27 00:50:43;;;;;;;13.03;12.53;;;21.90;93.30;;;;;;5041454;28;20472;-69
2023/10/27 00:53:10;;;;;;;11.53;11.10;;;21.90;93.40;;;;;;5043152;28;20553;-69
2023/10/27 00:55:39;;;;;;;13.40;12.70;;;22.00;93.60;;;;;;5041958;28;20476;-69
2023/10/27 00:58:08;;;;;;;12.63;12.13;;;22.00;93.60;;;;;;5039731;28;20445;-69
2023/10/27 01:00:35;;;;;;;13.73;13.13;;;21.90;93.40;;;;;;5040205;28;20468;-69
2023/10/27 01:03:02;;;;;;;12.67;12.17;;;21.90;93.50;;;;;;5043070;28;20872;-70
2023/10/27 01:05:30;;;;;;;11.93;11.53;;;21.90;93.50;;;;;;5043095;28;20476;-69
2023/10/27 01:07:57;;;;;;;12.50;11.70;;;21.90;93.50;;;;;;5031773;28;20476;-69
2023/10/27 01:10:24;;;;;;;12.60;12.10;;;21.90;93.50;;;;;;5039471;28;20492;-69
2023/10/27 01:12:51;;;;;;;12.10;11.80;;;21.90;93.50;;;;;;5042130;28;20564;-69
2023/10/27 01:15:18;;;;;;;13.77;13.23;;;21.90;93.50;;;;;;5042915;28;20474;-69
2023/10/27 01:17:45;;;;;;;12.40;11.90;;;21.90;93.60;;;;;;5040749;28;20940;-70
2023/10/27 01:20:12;;;;;;;13.10;12.40;;;21.90;93.60;;;;;;5039495;28;20492;-69
2023/10/27 01:22:43;;;;;;;11.97;11.43;;;21.90;93.60;;;;;;5040435;28;20472;-69
2023/10/27 01:25:10;;;;;;;12.60;12.10;;;21.90;93.70;;;;;;5043152;28;20436;-69
2023/10/27 01:27:37;;;;;;;13.73;13.20;;;21.90;93.60;;;;;;5041892;28;20468;-69
2023/10/27 01:30:04;;;;;;;12.00;11.40;;;21.90;93.70;;;;;;5039249;28;20492;-69
2023/10/27 01:32:31;;;;;;;12.60;12.03;;;21.90;93.70;;;;;;5039244;28;20563;-69
2023/10/27 01:34:58;;;;;;;12.53;12.03;;;21.90;93.70;;;;;;5042694;28;20465;-69
2023/10/27 01:37:25;;;;;;;14.07;13.43;;;21.90;93.70;;;;;;5042784;28;20468;-69
2023/10/27 01:39:56;;;;;;;12.27;11.80;;;21.90;93.80;;;;;;5039769;28;20500;-69
2023/10/27 01:42:23;;;;;;;12.70;12.27;;;21.90;93.80;;;;;;5039487;28;20774;-69
2023/10/27 01:44:50;;;;;;;13.67;12.97;;;21.90;93.90;;;;;;5040806;28;21798;-70
2023/10/27 01:47:17;;;;;;;12.57;11.67;;;21.90;93.90;;;;;;5039022;28;20486;-69
2023/10/27 01:49:44;;;;;;;12.53;12.03;;;21.90;94.00;;;;;;5044594;28;20503;-69
2023/10/27 01:52:11;;;;;;;12.27;11.67;;;21.90;94.00;;;;;;5043030;28;20480;-69
2023/10/27 01:54:38;;;;;;;12.20;11.80;;;21.80;93.90;;;;;;5041777;28;20492;-69
2023/10/27 01:57:06;;;;;;;12.27;11.87;;;21.90;93.80;;;;;;5023944;28;20866;-69
2023/10/27 01:59:33;;;;;;;11.97;11.57;;;21.90;93.80;;;;;;5033035;28;20499;-69
2023/10/27 02:02:00;;;;;;;13.07;12.53;;;21.90;93.80;;;;;;5039229;28;20944;-69
2023/10/27 02:04:27;;;;;;;12.27;11.87;;;21.80;94.00;;;;;;5039554;28;20486;-69
2023/10/27 02:06:55;;;;;;;13.57;13.00;;;21.80;94.00;;;;;;5045166;28;20480;-69
2023/10/27 02:09:22;;;;;;;12.60;12.03;;;21.80;94.00;;;;;;5046191;28;20492;-69
2023/10/27 02:11:49;;;;;;;11.80;11.40;;;21.80;94.00;;;;;;5032274;28;20450;-69
2023/10/27 02:14:17;;;;;;;12.43;11.63;;;21.80;93.80;;;;;;5046074;28;20503;-69
2023/10/27 02:16:44;;;;;;;12.80;12.40;;;21.80;93.90;;;;;;5044480;28;20447;-69
2023/10/27 02:19:13;;;;;;;12.37;11.97;;;21.80;93.90;;;;;;5042671;28;20484;-69
2023/10/27 02:21:40;;;;;;;12.80;12.23;;;21.80;93.90;;;;;;5036151;28;20450;-69
2023/10/27 02:24:07;;;;;;;11.70;11.40;;;21.80;93.90;;;;;;5046159;28;20956;-69
2023/10/27 02:26:35;;;;;;;12.07;11.57;;;21.80;93.90;;;;;;5045810;28;20795;-69
2023/10/27 02:29:02;;;;;;;11.90;11.40;;;21.80;93.90;;;;;;5042555;28;20493;-69
2023/10/27 02:31:30;;;;;;;13.00;12.50;;;21.90;93.90;;;;;;5041842;28;20484;-69
2023/10/27 02:33:57;;;;;;;12.43;12.03;;;21.80;93.90;;;;;;5045363;28;20511;-69
2023/10/27 02:36:24;;;;;;;12.20;11.77;;;21.90;94.00;;;;;;5045746;28;20475;-69
2023/10/27 02:38:51;;;;;;;12.83;12.33;;;21.80;94.00;;;;;;5043313;28;20552;-69
2023/10/27 02:41:18;;;;;;;13.07;12.57;;;21.80;93.90;;;;;;5037646;28;20454;-69
2023/10/27 02:43:45;;;;;;;12.10;11.70;;;21.80;93.90;;;;;;5034512;28;20860;-69
2023/10/27 02:46:13;;;;;;;12.57;12.13;;;21.80;93.80;;;;;;5045654;28;20863;-69
2023/10/27 02:51:09;;;;;;;12.00;11.60;;;21.80;93.90;;;;;;5032820;28;20476;-71
2023/10/27 02:53:36;;;;;;;12.40;12.00;;;21.80;93.80;;;;;;5033524;28;20487;-72
2023/10/27 02:56:06;;;;;;;12.50;12.00;;;21.80;93.80;;;;;;5033713;28;20469;-71
2023/10/27 02:58:33;;;;;;;12.57;12.03;;;21.80;93.70;;;;;;5033548;28;20473;-71
2023/10/27 03:01:00;;;;;;;13.13;12.73;;;21.80;93.70;;;;;;5014036;28;20466;-72
2023/10/27 03:03:27;;;;;;;14.63;14.10;;;21.80;93.80;;;;;;5013626;28;20470;-71
2023/10/27 03:05:54;;;;;;;13.50;13.10;;;21.80;93.70;;;;;;5013697;28;20446;-71
2023/10/27 03:08:23;;;;;;;12.93;12.43;;;21.80;93.70;;;;;;5013580;28;20882;-72
2023/10/27 03:10:49;;;;;;;13.60;13.20;;;21.80;93.80;;;;;;5013365;28;20494;-71
2023/10/27 03:13:16;;;;;;;13.60;12.87;;;21.80;93.80;;;;;;5013470;28;20510;-71
2023/10/27 03:15:43;;;;;;;14.70;14.10;;;21.80;93.80;;;;;;5013281;28;20479;-71
2023/10/27 03:18:11;;;;;;;14.37;13.87;;;21.80;93.80;;;;;;5013480;28;20949;-71
2023/10/27 03:20:38;;;;;;;13.67;13.27;;;21.80;93.80;;;;;;5013245;28;20841;-71
2023/10/27 03:23:05;;;;;;;13.03;12.60;;;21.80;93.80;;;;;;5013323;28;20473;-71
2023/10/27 03:25:33;;;;;;;13.37;12.90;;;21.80;93.80;;;;;;5013353;28;20479;-71
2023/10/27 03:28:00;;;;;;;15.23;14.73;;;21.80;94.00;;;;;;5013283;28;20500;-71
2023/10/27 03:30:27;;;;;;;16.57;15.80;;;21.80;94.00;;;;;;5013214;28;20472;-71
2023/10/27 03:32:54;;;;;;;17.10;16.50;;;21.80;94.00;;;;;;5012901;28;20877;-71
2023/10/27 03:35:21;;;;;;;17.13;16.43;;;21.80;93.90;;;;;;5013103;28;20572;-71
2023/10/27 03:37:48;;;;;;;16.00;15.50;;;21.80;93.90;;;;;;5013124;28;20481;-71
2023/10/27 03:40:15;;;;;;;14.10;13.60;;;21.80;94.00;;;;;;5013026;28;20493;-71
2023/10/27 03:42:43;;;;;;;13.10;12.70;;;21.80;94.00;;;;;;5012729;28;20485;-71
2023/10/27 03:45:11;;;;;;;13.80;13.23;;;21.80;94.00;;;;;;5012973;28;20780;-70
2023/10/27 03:47:38;;;;;;;14.17;13.57;;;21.80;93.90;;;;;;5012961;28;20481;-70
2023/10/27 03:50:06;;;;;;;14.00;13.50;;;21.80;93.80;;;;;;5012603;28;20493;-71
2023/10/27 03:52:33;;;;;;;13.13;12.73;;;21.80;93.70;;;;;;5012795;28;20469;-71
2023/10/27 03:55:00;;;;;;;14.27;13.77;;;21.80;93.70;;;;;;5012740;28;20509;-70
2023/10/27 03:57:26;;;;;;;14.17;13.37;;;21.80;93.70;;;;;;5012664;28;20538;-71
2023/10/27 03:59:55;;;;;;;14.93;14.43;;;21.80;93.60;;;;;;5012606;28;20898;-71
2023/10/27 04:02:22;;;;;;;14.20;13.70;;;21.80;93.70;;;;;;5012552;28;20528;-70
2023/10/27 04:04:48;;;;;;;14.03;13.63;;;21.80;93.70;;;;;;5012584;28;20470;-71
2023/10/27 04:07:15;;;;;;;13.80;13.40;;;21.80;93.70;;;;;;5012759;28;20480;-71
2023/10/27 04:09:42;;;;;;;13.80;13.40;;;21.80;93.80;;;;;;5011935;28;20496;-71
2023/10/27 04:12:09;;;;;;;14.30;13.80;;;21.80;94.10;;;;;;5012489;28;20485;-71
2023/10/27 04:14:36;;;;;;;13.90;13.50;;;21.80;93.90;;;;;;5012419;28;20563;-71
2023/10/27 04:17:04;;;;;;;14.00;13.60;;;21.80;93.70;;;;;;5004259;28;20585;-70
2023/10/27 04:19:31;;;;;;;14.70;14.20;;;21.80;94.00;;;;;;5012523;28;20969;-71
2023/10/27 04:21:58;;;;;;;14.40;14.00;;;21.80;94.10;;;;;;5012184;28;20878;-71
2023/10/27 04:24:25;;;;;;;14.90;14.30;;;21.80;94.30;;;;;;5012400;28;20894;-71
2023/10/27 04:26:52;;;;;;;14.43;14.03;;;21.80;94.30;;;;;;5012186;28;20470;-71
2023/10/27 04:29:19;;;;;;;15.43;14.70;;;21.80;94.40;;;;;;5012365;28;20477;-71
2023/10/27 04:31:46;;;;;;;14.87;14.27;;;21.80;94.60;;;;;;5012221;28;20469;-71
2023/10/27 04:34:14;;;;;;;15.90;15.17;;;21.80;94.60;;;;;;5012057;28;20505;-71
2023/10/27 04:36:41;;;;;;;14.23;13.70;;;21.80;94.80;;;;;;5012055;28;20814;-71
2023/10/27 04:39:08;;;;;;;13.97;13.47;;;21.80;94.60;;;;;;5012062;28;20497;-71
2023/10/27 04:41:35;;;;;;;14.70;14.23;;;21.80;94.50;;;;;;5012163;28;20904;-71
2023/10/27 04:44:02;;;;;;;14.57;14.00;;;21.80;94.40;;;;;;5012047;28;20470;-71
2023/10/27 04:46:29;;;;;;;14.60;14.20;;;21.80;94.70;;;;;;5011820;28;20442;-71
2023/10/27 04:48:57;;;;;;;15.57;15.17;;;21.80;94.30;;;;;;5011722;28;20498;-71
2023/10/27 04:51:26;;;;;;;15.70;15.10;;;21.80;94.50;;;;;;5011852;28;20947;-71
2023/10/27 04:53:53;;;;;;;17.80;16.90;;;21.80;94.20;;;;;;5011586;28;20566;-71
2023/10/27 04:56:20;;;;;;;18.63;17.63;;;21.90;93.90;;;;;;5011791;28;20862;-71
2023/10/27 04:58:48;;;;;;;14.90;14.07;;;21.80;93.70;;;;;;5011714;28;20492;-71
2023/10/27 05:01:15;;;;;;;18.90;17.40;;;21.80;93.90;;;;;;5011661;28;20473;-72
2023/10/27 05:03:42;;;;;;;19.93;18.33;;;21.90;96.20;;;;;;5011554;28;20492;-72
2023/10/27 05:06:09;;;;;;;19.90;17.80;;;21.90;98.30;;;;;;5011700;28;20535;-72
2023/10/27 05:08:37;;;;;;;26.87;18.97;;;21.90;99.90;;;;;;5011927;28;20885;-71
2023/10/27 05:11:05;;;;;;;18.67;17.33;;;21.90;99.90;;;;;;5011561;28;20473;-71
2023/10/27 05:13:32;;;;;;;19.47;17.57;;;21.90;99.90;;;;;;5011454;28;20448;-71
2023/10/27 05:15:59;;;;;;;18.13;16.93;;;21.90;99.90;;;;;;5011469;28;20446;-71
2023/10/27 05:18:26;;;;;;;25.63;19.50;;;21.90;99.90;;;;;;5011643;28;20474;-71
2023/10/27 05:20:54;;;;;;;19.80;17.87;;;21.90;99.90;;;;;;5011364;28;20472;-71
2023/10/27 05:23:21;;;;;;;19.90;17.47;;;21.90;99.90;;;;;;5014619;28;20446;-71
2023/10/27 05:25:50;;;;;;;18.90;17.07;;;21.90;99.90;;;;;;5015396;28;20980;-71
2023/10/27 05:28:17;;;;;;;18.23;16.63;;;21.90;99.70;;;;;;5015625;28;20481;-71
2023/10/27 05:30:46;;;;;;;19.10;17.53;;;21.90;99.30;;;;;;5015112;28;20500;-71
2023/10/27 05:33:13;;;;;;;19.50;17.70;;;21.90;98.80;;;;;;5015554;28;20504;-71
2023/10/27 05:35:40;;;;;;;19.43;18.03;;;21.90;98.50;;;;;;5015410;28;20882;-71
2023/10/27 05:38:07;;;;;;;17.07;15.70;;;21.90;98.30;;;;;;5007445;28;20882;-71
2023/10/27 05:40:34;;;;;;;17.13;16.10;;;21.90;98.00;;;;;;5015196;28;20498;-71
2023/10/27 05:43:02;;;;;;;18.03;16.67;;;21.90;97.80;;;;;;5014970;28;20814;-71
2023/10/27 05:45:29;;;;;;;17.70;16.77;;;21.90;97.50;;;;;;5015273;28;20477;-71
2023/10/27 05:47:56;;;;;;;19.00;17.57;;;21.90;97.30;;;;;;5015020;28;20959;-71
2023/10/27 05:50:23;;;;;;;18.00;16.70;;;22.00;97.20;;;;;;5014895;28;20496;-72
2023/10/27 05:52:50;;;;;;;17.90;16.57;;;21.90;96.90;;;;;;5014906;28;20489;-71
2023/10/27 05:55:17;;;;;;;19.70;18.50;;;22.00;96.90;;;;;;5014946;28;20509;-71
2023/10/27 05:57:43;;;;;;;18.00;16.40;;;22.00;96.70;;;;;;5014758;28;20474;-71
2023/10/27 06:00:12;;;;;;;16.80;15.70;;;21.90;96.50;;;;;;5014738;28;20508;-71
2023/10/27 06:02:39;;;;;;;15.80;14.80;;;21.90;96.40;;;;;;5014885;28;20481;-71
2023/10/27 06:05:07;;;;;;;18.23;16.90;;;21.90;96.30;;;;;;5014644;28;20474;-72
2023/10/27 06:07:34;;;;;;;16.13;15.27;;;21.90;96.10;;;;;;5014748;28;20473;-72
2023/10/27 06:10:00;;;;;;;17.00;15.30;;;21.90;96.00;;;;;;5014552;28;21000;-71
2023/10/27 06:12:27;;;;;;;17.77;16.20;;;22.00;95.90;;;;;;5014642;28;20480;-71
2023/10/27 06:14:54;;;;;;;15.83;14.97;;;21.90;95.70;;;;;;5014411;28;20564;-71
2023/10/27 06:17:23;;;;;;;16.67;15.60;;;21.90;95.70;;;;;;5014576;28;20478;-71
2023/10/27 06:19:50;;;;;;;18.27;17.03;;;21.90;95.60;;;;;;5014457;28;20889;-71
2023/10/27 06:22:16;;;;;;;16.00;14.90;;;21.90;95.50;;;;;;5014575;28;20481;-71
2023/10/27 06:24:43;;;;;;;16.97;16.07;;;21.90;95.40;;;;;;5014304;28;20446;-71
2023/10/27 06:27:10;;;;;;;16.23;15.43;;;21.90;95.40;;;;;;5014451;28;20477;-71
2023/10/27 06:29:37;;;;;;;16.60;15.80;;;21.90;95.30;;;;;;5014427;28;20497;-71
2023/10/27 06:32:04;;;;;;;16.90;16.00;;;21.90;95.20;;;;;;5014136;28;20503;-71
2023/10/27 06:34:33;;;;;;;19.20;18.10;;;22.00;95.20;;;;;;5013844;28;20505;-71
2023/10/27 06:37:01;;;;;;;18.43;17.23;;;21.90;95.10;;;;;;5014219;28;20828;-71
2023/10/27 06:39:28;;;;;;;16.70;15.90;;;21.90;95.00;;;;;;5014110;28;20466;-71
2023/10/27 06:41:54;;;;;;;18.00;16.83;;;21.90;94.90;;;;;;5014132;28;20468;-71
2023/10/27 06:44:21;;;;;;;17.20;16.40;;;21.90;94.90;;;;;;5014047;28;20474;-71
2023/10/27 06:46:48;;;;;;;18.10;17.23;;;21.90;94.80;;;;;;5013904;28;20980;-71
2023/10/27 06:49:15;;;;;;;17.93;17.07;;;21.90;94.80;;;;;;5013873;28;20993;-71
2023/10/27 06:51:44;;;;;;;17.57;16.77;;;21.90;94.70;;;;;;5014140;28;20478;-71
2023/10/27 06:54:10;;;;;;;20.03;19.03;;;21.90;94.70;;;;;;5014033;28;20517;-71
2023/10/27 06:56:37;;;;;;;18.50;17.50;;;21.90;94.90;;;;;;5013909;28;20960;-71
2023/10/27 06:59:04;;;;;;;17.10;16.40;;;21.90;94.60;;;;;;5013574;28;20516;-72
2023/10/27 07:01:31;;;;;;;19.00;17.33;;;21.90;94.50;;;;;;5013691;28;20480;-71
2023/10/27 07:03:58;;;;;;;17.70;16.70;;;22.00;94.50;;;;;;5013556;28;20454;-71
2023/10/27 07:06:25;;;;;;;18.80;17.80;;;21.90;94.40;;;;;;5013640;28;20446;-72
2023/10/27 07:08:54;;;;;;;17.93;16.93;;;21.90;94.40;;;;;;5013476;28;20474;-72
2023/10/27 07:11:22;;;;;;;17.77;16.87;;;21.90;94.30;;;;;;5013576;28;20481;-72
2023/10/27 07:13:49;;;;;;;17.43;16.53;;;21.90;94.20;;;;;;5013385;28;20952;-71
2023/10/27 07:16:16;;;;;;;17.17;16.47;;;22.00;94.20;;;;;;5013459;28;21032;-71
2023/10/27 07:18:43;;;;;;;17.37;16.57;;;22.00;94.10;;;;;;5013545;28;20446;-71
2023/10/27 07:21:12;;;;;;;17.57;16.70;;;22.00;94.00;;;;;;5013420;28;20442;-72
2023/10/27 07:23:38;;;;;;;17.60;16.70;;;22.00;94.00;;;;;;5013429;28;20450;-72
2023/10/27 07:26:13;;;;;;;17.73;16.93;;;22.00;93.90;;;;;;5013147;28;20478;-72
2023/10/27 07:28:41;;;;;;;18.20;17.30;;;22.00;93.90;;;;;;5013192;28;20481;-72
2023/10/27 07:31:08;;;;;;;16.77;15.57;;;22.00;93.80;;;;;;5013179;28;20466;-72
2023/10/27 07:33:35;;;;;;;17.30;16.30;;;21.90;93.80;;;;;;5013280;28;20480;-72
2023/10/27 07:36:03;;;;;;;17.20;16.37;;;21.90;93.70;;;;;;5012894;28;20532;-71
2023/10/27 07:38:30;;;;;;;16.20;15.60;;;21.90;93.70;;;;;;5013029;28;20441;-71
2023/10/27 07:40:57;;;;;;;16.27;15.50;;;21.90;93.70;;;;;;5012755;28;20501;-72
2023/10/27 07:43:26;;;;;;;16.47;15.87;;;21.90;93.60;;;;;;5013134;28;20885;-71
2023/10/27 07:45:54;;;;;;;16.60;15.90;;;21.90;93.60;;;;;;5012155;28;20473;-71
2023/10/27 07:48:21;;;;;;;16.30;15.50;;;21.90;93.50;;;;;;5013059;28;20453;-72
2023/10/27 07:50:49;;;;;;;16.40;15.80;;;21.90;93.50;;;;;;5012592;28;20520;-71
2023/10/27 07:53:16;;;;;;;16.83;16.23;;;21.90;93.40;;;;;;5012877;28;20474;-71
2023/10/27 07:55:43;;;;;;;16.50;15.70;;;21.90;93.40;;;;;;5012653;28;20509;-72
2023/10/27 07:58:11;;;;;;;16.50;15.90;;;21.90;93.40;;;;;;5012485;28;20470;-71
2023/10/27 08:00:39;;;;;;;16.73;16.13;;;21.90;93.40;;;;;;5012616;28;20469;-71
2023/10/27 08:03:06;;;;;;;17.53;16.93;;;21.90;93.30;;;;;;5012402;28;20875;-71
2023/10/27 08:05:33;;;;;;;16.73;15.83;;;21.90;93.30;;;;;;5012495;28;20466;-72
2023/10/27 08:08:01;;;;;;;16.83;16.03;;;21.90;93.30;;;;;;5012513;28;20485;-72
2023/10/27 08:10:28;;;;;;;16.40;15.70;;;21.90;93.30;;;;;;5012479;28;20525;-71
2023/10/27 08:12:56;;;;;;;16.20;15.60;;;21.90;93.30;;;;;;5012276;28;20470;-72
2023/10/27 08:15:23;;;;;;;16.83;16.20;;;21.90;93.20;;;;;;5012283;28;20512;-71
2023/10/27 08:17:51;;;;;;;17.40;16.57;;;21.90;93.20;;;;;;5012298;28;20484;-72
2023/10/27 08:20:18;;;;;;;17.47;16.30;;;21.90;93.20;;;;;;5012377;28;20497;-72
2023/10/27 08:22:45;;;;;;;16.10;15.50;;;21.90;93.20;;;;;;5012209;28;20473;-71
2023/10/27 08:25:13;;;;;;;16.50;15.90;;;21.90;93.20;;;;;;5004080;28;20442;-71
2023/10/27 08:27:40;;;;;;;16.70;16.10;;;21.90;93.10;;;;;;5012270;28;20859;-71
2023/10/27 08:30:08;;;;;;;17.23;16.63;;;21.90;93.10;;;;;;5011985;28;20497;-71
2023/10/27 08:32:35;;;;;;;15.50;15.00;;;21.90;93.10;;;;;;5012087;28;20876;-71
2023/10/27 08:35:03;;;;;;;17.30;16.20;;;21.90;93.10;;;;;;5011931;28;20775;-71
2023/10/27 08:37:30;;;;;;;16.60;15.77;;;21.90;93.10;;;;;;5012174;28;20450;-71
2023/10/27 08:39:57;;;;;;;18.37;17.40;;;21.90;93.00;;;;;;5011902;28;20493;-71
2023/10/27 08:42:27;;;;;;;17.20;16.50;;;21.90;93.00;;;;;;5011901;28;20450;-71
2023/10/27 08:44:55;;;;;;;16.97;16.37;;;21.90;92.90;;;;;;5011877;28;20481;-71
2023/10/27 08:47:22;;;;;;;16.27;15.53;;;21.90;92.90;;;;;;5011944;28;20452;-72
2023/10/27 08:49:49;;;;;;;16.60;15.83;;;21.90;92.90;;;;;;5011819;28;20493;-70
2023/10/27 08:52:18;;;;;;;16.50;15.90;;;21.90;92.90;;;;;;5011970;28;20478;-70
2023/10/27 08:54:46;;;;;;;16.20;15.60;;;21.90;92.80;;;;;;5011736;28;20520;-70
2023/10/27 08:57:13;;;;;;;16.17;15.23;;;21.90;92.80;;;;;;5011485;28;20438;-70
2023/10/27 08:59:40;;;;;;;17.73;16.97;;;21.90;92.80;;;;;;5011656;28;20478;-70
2023/10/27 09:02:07;;;;;;;16.70;16.10;;;21.90;92.70;;;;;;5011704;28;20949;-71
2023/10/27 09:04:34;;;;;;;17.00;16.40;;;21.90;92.70;;;;;;5011990;28;20850;-71
2023/10/27 09:07:01;;;;;;;15.83;15.23;;;21.90;92.70;;;;;;5011528;28;20442;-71
2023/10/27 09:09:31;;;;;;;16.20;15.37;;;21.90;92.60;;;;;;5011575;28;20469;-71
2023/10/27 09:11:58;;;;;;;16.67;16.07;;;21.90;92.60;;;;;;5011573;28;20446;-70
2023/10/27 09:14:26;;;;;;;16.07;15.57;;;21.90;92.50;;;;;;5011691;28;20808;-71
2023/10/27 09:17:05;;;;;;;16.73;16.23;;;21.90;92.50;;;;;;5011339;28;20477;-71
2023/10/27 09:19:32;;;;;;;16.20;15.70;;;21.90;92.40;;;;;;5011720;28;20470;-71
2023/10/27 09:22:00;;;;;;;17.13;16.07;;;21.90;92.40;;;;;;5011687;28;20480;-70
2023/10/27 09:24:29;;;;;;;17.00;16.40;;;21.90;92.40;;;;;;5011545;28;20520;-70
2023/10/27 09:26:57;;;;;;;16.57;16.07;;;21.90;92.40;;;;;;5011413;28;20442;-71
2023/10/27 09:29:25;;;;;;;16.93;16.43;;;21.90;92.40;;;;;;5011405;28;20489;-71
2023/10/27 09:31:52;;;;;;;15.80;15.30;;;21.90;92.40;;;;;;5011327;28;20446;-71
2023/10/27 09:34:20;;;;;;;17.60;16.90;;;21.90;92.40;;;;;;5011418;28;20481;-71
2023/10/27 09:36:49;;;;;;;16.30;15.70;;;21.90;92.30;;;;;;5011274;28;20489;-71
2023/10/27 09:39:18;;;;;;;15.87;15.40;;;21.90;92.30;;;;;;5003324;28;20461;-70
2023/10/27 09:41:56;;;;;;;17.10;16.50;;;21.90;92.30;;;;;;5011438;28;20940;-72
2023/10/27 09:44:40;;;;;;;16.60;16.00;;;21.90;92.20;;;;;;5004470;28;20477;-71
2023/10/27 09:47:14;;;;;;;16.53;15.83;;;21.90;92.20;;;;;;5011183;28;20474;-72
2023/10/27 09:49:44;;;;;;;16.07;15.57;;;21.90;92.20;;;;;;5011047;28;20497;-71
2023/10/27 09:52:11;;;;;;;16.30;15.80;;;21.90;92.20;;;;;;5011247;28;20504;-71
2023/10/27 09:54:39;;;;;;;17.90;17.20;;;21.90;92.20;;;;;;5011183;28;20824;-70
2023/10/27 09:57:07;;;;;;;16.67;15.97;;;21.90;92.20;;;;;;5011116;28;20521;-71
2023/10/27 09:59:34;;;;;;;16.53;15.93;;;21.90;92.20;;;;;;5011338;28;20531;-72
2023/10/27 10:02:05;;;;;;;16.13;15.63;;;21.90;92.20;;;;;;5011029;28;20504;-71
2023/10/27 10:05:02;;;;;;;15.63;15.13;;;21.90;92.20;;;;;;5011121;28;20501;-71
2023/10/27 10:07:33;;;;;;;16.40;15.90;;;21.90;92.30;;;;;;4996735;28;20456;-71
2023/10/27 10:10:24;;;;;;;16.50;16.00;;;21.90;92.20;;;;;;5014494;28;20490;-70
2023/10/27 10:13:06;;;;;;;16.83;16.23;;;21.90;92.20;;;;;;5014625;28;20445;-71
2023/10/27 10:15:34;;;;;;;15.23;14.80;;;21.90;92.20;;;;;;5008836;28;20900;-71
2023/10/27 10:18:02;;;;;;;16.00;15.50;;;21.90;92.10;;;;;;5014555;28;20482;-70
2023/10/27 10:20:59;;;;;;;16.00;15.50;;;21.90;92.10;;;;;;5014660;28;20472;-71
2023/10/27 10:24:18;;;;;;;15.73;15.23;;;21.90;92.10;;;;;;4954050;28;20854;-72
2023/10/27 10:27:13;;;;;;;17.33;16.73;;;21.90;92.10;;;;;;5010094;28;20525;-71
2023/10/27 10:29:43;;;;;;;16.70;16.20;;;21.90;92.10;;;;;;4996139;28;20561;-71
2023/10/27 10:32:32;;;;;;;16.60;16.10;;;21.90;92.10;;;;;;5014292;28;20829;-71
2023/10/27 10:35:27;;;;;;;16.13;15.57;;;21.90;92.10;;;;;;5014278;28;20482;-71
2023/10/27 10:37:54;;;;;;;15.90;15.40;;;21.90;92.00;;;;;;4979341;28;20448;-71
2023/10/27 10:40:23;;;;;;;16.20;15.70;;;21.90;92.00;;;;;;5014186;28;20461;-70
2023/10/27 10:43:27;;;;;;;16.70;16.20;;;21.90;92.00;;;;;;5014188;28;20446;-70
2023/10/27 10:45:57;;;;;;;15.73;15.23;;;21.90;92.00;;;;;;5011109;28;20979;-70
2023/10/27 10:48:25;;;;;;;16.17;15.67;;;21.90;92.40;;;;;;5014090;28;20858;-71
2023/10/27 10:50:53;;;;;;;16.07;15.57;;;21.90;92.00;;;;;;5013943;28;20468;-70
2023/10/27 10:53:22;;;;;;;17.17;16.57;;;21.90;92.00;;;;;;5006095;28;20440;-70
2023/10/27 10:55:50;;;;;;;16.70;16.20;;;21.90;92.00;;;;;;5013735;28;20484;-70
2023/10/27 10:58:24;;;;;;;16.50;15.97;;;21.90;91.90;;;;;;5013864;28;20474;-70
2023/10/27 11:00:51;;;;;;;16.43;15.83;;;21.90;91.90;;;;;;5013697;28;20828;-70
2023/10/27 11:03:22;;;;;;;15.60;15.10;;;21.90;91.90;;;;;;5013636;28;20504;-70
2023/10/27 11:05:50;;;;;;;16.10;15.60;;;21.90;91.90;;;;;;5013862;28;20446;-70
2023/10/27 11:08:24;;;;;;;15.70;15.30;;;21.90;91.80;;;;;;5013522;28;20442;-71
2023/10/27 11:11:00;;;;;;;16.30;15.70;;;21.90;91.70;;;;;;5013607;28;20972;-69
2023/10/27 11:13:27;;;;;;;15.50;15.10;;;21.90;91.70;;;;;;5006480;28;20446;-70
2023/10/27 11:15:54;;;;;;;15.60;15.00;;;21.90;91.70;;;;;;5013548;28;21046;-70
2023/10/27 11:18:27;;;;;;;15.47;14.77;;;21.90;91.70;;;;;;5005729;28;20484;-70
2023/10/27 11:20:54;;;;;;;16.10;15.60;;;21.90;91.70;;;;;;5012344;28;20490;-71
2023/10/27 11:23:21;;;;;;;15.73;15.23;;;21.90;91.60;;;;;;5005303;28;20474;-70
2023/10/27 11:25:47;;;;;;;17.60;17.00;;;21.90;91.60;;;;;;5013317;28;20449;-70
2023/10/27 11:28:21;;;;;;;15.43;15.03;;;21.90;91.60;;;;;;5013415;28;20500;-70
2023/10/27 11:31:02;;;;;;;15.50;15.07;;;21.90;91.50;;;;;;5013350;28;20469;-70
2023/10/27 11:33:31;;;;;;;16.40;15.90;;;21.90;91.50;;;;;;5006331;28;20504;-70
2023/10/27 11:35:59;;;;;;;16.23;15.63;;;21.90;91.50;;;;;;5012975;28;20568;-70
2023/10/27 11:38:32;;;;;;;16.63;16.13;;;21.90;91.50;;;;;;5013092;28;20764;-70
2023/10/27 11:41:11;;;;;;;16.13;15.63;;;21.90;91.50;;;;;;5012820;28;20493;-70
2023/10/27 11:43:38;;;;;;;15.47;15.07;;;21.90;91.50;;;;;;5012942;28;20454;-70
2023/10/27 11:46:12;;;;;;;16.40;15.93;;;21.90;91.50;;;;;;5012860;28;20469;-70
2023/10/27 11:48:41;;;;;;;15.13;14.73;;;21.90;91.40;;;;;;5012864;28;20469;-70
2023/10/27 11:51:08;;;;;;;16.20;15.67;;;21.90;91.40;;;;;;5012741;28;20449;-70
2023/10/27 11:53:36;;;;;;;17.63;17.10;;;21.90;91.40;;;;;;5012906;28;20473;-70
2023/10/27 11:56:04;;;;;;;15.10;14.70;;;21.90;91.50;;;;;;5012735;28;20513;-70
2023/10/27 11:58:31;;;;;;;15.27;14.80;;;21.90;91.50;;;;;;5012728;28;20446;-70
2023/10/27 12:00:58;;;;;;;15.40;14.83;;;21.90;91.50;;;;;;5012377;28;20466;-70
2023/10/27 12:03:26;;;;;;;15.50;15.03;;;21.90;91.50;;;;;;5012837;28;20474;-70
2023/10/27 12:05:54;;;;;;;16.33;15.83;;;21.90;91.50;;;;;;5012575;28;20473;-72
2023/10/27 12:08:21;;;;;;;16.20;15.80;;;21.90;91.50;;;;;;5004414;28;20501;-70
2023/10/27 12:10:52;;;;;;;15.40;14.90;;;21.90;91.50;;;;;;5012479;28;20490;-70
2023/10/27 12:13:19;;;;;;;16.10;15.60;;;21.90;91.50;;;;;;5012476;28;20438;-70
2023/10/27 12:15:47;;;;;;;16.03;15.53;;;21.90;91.50;;;;;;5012463;28;20924;-70
2023/10/27 12:18:14;;;;;;;16.63;16.07;;;21.90;91.50;;;;;;5012292;28;21030;-70
2023/10/27 12:20:41;;;;;;;15.90;15.50;;;21.90;91.50;;;;;;5012270;28;20501;-70
2023/10/27 12:23:10;;;;;;;16.00;15.50;;;21.90;91.50;;;;;;5012230;28;20470;-71
2023/10/27 12:25:37;;;;;;;15.67;15.27;;;21.90;91.50;;;;;;5012200;28;20484;-70
2023/10/27 12:28:05;;;;;;;16.00;15.60;;;21.90;91.50;;;;;;5012274;28;20482;-70
2023/10/27 12:30:33;;;;;;;16.60;16.10;;;21.90;91.40;;;;;;5011800;28;20470;-71
2023/10/27 12:33:01;;;;;;;15.90;15.50;;;21.90;91.40;;;;;;5011963;28;20488;-70
2023/10/27 12:35:28;;;;;;;15.97;15.47;;;21.90;91.40;;;;;;5012021;28;20449;-71
2023/10/27 12:37:55;;;;;;;15.83;15.43;;;21.90;91.40;;;;;;5012102;28;20576;-70